Cary, IL (60013)

4:19 PM CST on December 03, 2016 (GMT -0600)
Northwood Acres | | Change Station
Active Advisory: Winter Weather Advisory

Elev 860 ft 42.23 °N, 88.23 °W | Updated 9 minutes ago

Partly Cloudy
Partly Cloudy
--
Feels Like --
N
-
Wind Variable Wind from North

Today
High -- | Low -- °F
--% Chance of Precip.
Yesterday
High -- | Low -- °F
Precip. -- in
Pressure 30.36 in
Visibility 10.0 miles
Clouds Few 4200 ft
Dew Point Not available.
Humidity Not available.
Rainfall 0.00 in
Snow Depth Not available.
7:04 AM 4:21 PM
Waxing Crescent, 17% visible
METAR KPWK 032152Z 25003KT 10SM FEW042 01/M06 A3033 RMK AO2 SLP279 T00061056
Pressure 30.36 in
Visibility 10.0 miles
Clouds Few 4200 ft
Dew Point Not available.
Humidity Not available.
Rainfall 0.00 in
Snow Depth Not available.
7:04 AM 4:21 PM
Waxing Crescent, 17% visible
METAR KPWK 032152Z 25003KT 10SM FEW042 01/M06 A3033 RMK AO2 SLP279 T00061056

10-Day Weather Forecast

Almanac

Astronomy

Dec. 03, 2016 Rise Set
Actual Time
Civil Twilight
Nautical Twilight
Astronomical Twilight
Moon
Length of Visible Light
Length of Day
Tomorrow will be .
, % of the Moon is Illuminated

Today's Extremes

State Highs State Lows

Community

WunderPhotos

Upload Photos

1,955,525 photos uploaded!

WunderBlog® & News

Nearby

Air Quality

  Air Quality AQ Index Pollutant
Not available.

Snow Depth

Station Depth Elevation

Earthquake Activity

City Distance Mag. Time & Date
Minimum magnitude displayed is 2.5.

Coastal Water Temperatures

Place Temperature

Stations

Nearby Weather Stations

Station Location Temp. Windchill Dew Point Humidity Wind Precip. Elev Updated Type
                   

Watches & Warnings

Winter Weather Advisory
Issued: 3:07 PM CST Dec. 3, 2016 – National Weather Service

... Winter Weather Advisory in effect from 7 am to 6 PM CST
Sunday...

The National Weather Service in Chicago has issued a Winter
Weather Advisory for snow which is in effect from 7 am to 6 PM
CST Sunday.

* Timing... light to moderate snow will begin Sunday morning and
continue through Sunday afternoon.

* Snow accumulations... 2 to 4 inches with the heaviest amounts
generally northwest of a Chicago to Peru line.

* Main impact... slippery conditions are expected on untreated
surfaces... creating hazardous travel.

* Other impacts... visibility may fall to around one half mile at
times... causing an additional travel hazard.

* Note... impacts may be mitigated by mild Road temperatures on
heavily traveled roads... such as in the city of Chicago and
immediate suburbs.

Precautionary/preparedness actions...

A Winter Weather Advisory for snow means that periods of snow
will cause primarily travel difficulties. Be prepared for snow
covered roads and limited visibilities... and use caution while
driving.



Cms/Castro